Terminal Aerodrome Forecast
Issued by NWS

Home | Current Version | Previous Version | Text Only | Print | Product List | Glossary On
Versions: 1 2 3 4 5 6 7 8 9 10 11 12
620
FTUS45 KRIW 180524
TAFBPI
TAF
KBPI 180524Z 1806/1906 VRB05KT 2SM -SN OVC014
      TEMPO 1807/1811 1SM -SN OVC008
     FM181300 VRB05KT 4SM -SN OVC020
     FM181500 15006KT P6SM VCSH BKN040
     FM181800 16006KT P6SM BKN040=

USA.gov is the U.S. government's official web portal to all federal, state and local government web resources and services.